sensor_id;sensor_type;location;lat;lon;timestamp;temperature;humidity
13521;DHT22;6832;51.186;3.236;2022-09-03T00:02:06;25.30;55.40
13521;DHT22;6832;51.186;3.236;2022-09-03T00:04:40;25.30;55.20
13521;DHT22;6832;51.186;3.236;2022-09-03T00:07:15;25.30;55.30
13521;DHT22;6832;51.186;3.236;2022-09-03T00:09:59;25.20;55.30
13521;DHT22;6832;51.186;3.236;2022-09-03T00:12:35;25.20;55.30
13521;DHT22;6832;51.186;3.236;2022-09-03T00:15:11;25.20;55.30
13521;DHT22;6832;51.186;3.236;2022-09-03T00:17:49;25.10;55.80
13521;DHT22;6832;51.186;3.236;2022-09-03T00:20:24;25.10;55.90
13521;DHT22;6832;51.186;3.236;2022-09-03T00:23:04;25.10;55.30
13521;DHT22;6832;51.186;3.236;2022-09-03T00:25:40;25.00;55.50
13521;DHT22;6832;51.186;3.236;2022-09-03T00:28:32;25.00;55.20
13521;DHT22;6832;51.186;3.236;2022-09-03T00:31:17;25.00;55.90
13521;DHT22;6832;51.186;3.236;2022-09-03T00:34:00;25.00;56.60
13521;DHT22;6832;51.186;3.236;2022-09-03T00:36:33;24.90;55.80
13521;DHT22;6832;51.186;3.236;2022-09-03T00:39:10;24.90;56.00
13521;DHT22;6832;51.186;3.236;2022-09-03T00:42:02;24.90;56.20
13521;DHT22;6832;51.186;3.236;2022-09-03T00:44:56;24.80;56.50
13521;DHT22;6832;51.186;3.236;2022-09-03T00:47:34;24.90;56.20
13521;DHT22;6832;51.186;3.236;2022-09-03T00:50:11;24.80;56.30
13521;DHT22;6832;51.186;3.236;2022-09-03T00:53:01;24.80;56.30
13521;DHT22;6832;51.186;3.236;2022-09-03T00:55:54;24.80;56.30
13521;DHT22;6832;51.186;3.236;2022-09-03T00:59:00;24.70;56.60
13521;DHT22;6832;51.186;3.236;2022-09-03T01:01:38;24.70;56.80
13521;DHT22;6832;51.186;3.236;2022-09-03T01:07:57;24.60;56.70
13521;DHT22;6832;51.186;3.236;2022-09-03T01:10:45;24.50;56.80
13521;DHT22;6832;51.186;3.236;2022-09-03T01:13:22;24.40;56.70
13521;DHT22;6832;51.186;3.236;2022-09-03T01:16:20;24.40;57.00
13521;DHT22;6832;51.186;3.236;2022-09-03T01:19:00;24.30;57.90
13521;DHT22;6832;51.186;3.236;2022-09-03T01:25:00;24.20;57.60
13521;DHT22;6832;51.186;3.236;2022-09-03T01:27:43;24.10;57.60
13521;DHT22;6832;51.186;3.236;2022-09-03T01:33:34;24.10;57.40
13521;DHT22;6832;51.186;3.236;2022-09-03T01:36:10;24.10;57.70
13521;DHT22;6832;51.186;3.236;2022-09-03T01:38:44;24.10;57.90
13521;DHT22;6832;51.186;3.236;2022-09-03T01:44:34;24.00;58.20
13521;DHT22;6832;51.186;3.236;2022-09-03T01:47:15;24.00;58.00
13521;DHT22;6832;51.186;3.236;2022-09-03T01:50:03;24.00;58.50
13521;DHT22;6832;51.186;3.236;2022-09-03T01:52:41;24.00;59.20
13521;DHT22;6832;51.186;3.236;2022-09-03T01:55:26;24.00;58.70
13521;DHT22;6832;51.186;3.236;2022-09-03T01:57:57;24.00;58.90
13521;DHT22;6832;51.186;3.236;2022-09-03T02:00:34;24.00;58.60
13521;DHT22;6832;51.186;3.236;2022-09-03T02:03:07;24.00;58.40
13521;DHT22;6832;51.186;3.236;2022-09-03T02:05:40;24.00;58.50
13521;DHT22;6832;51.186;3.236;2022-09-03T02:08:14;24.00;58.40
13521;DHT22;6832;51.186;3.236;2022-09-03T02:10:45;24.00;58.70
13521;DHT22;6832;51.186;3.236;2022-09-03T02:13:16;24.00;58.40
13521;DHT22;6832;51.186;3.236;2022-09-03T02:15:58;23.90;58.20
13521;DHT22;6832;51.186;3.236;2022-09-03T02:18:49;23.90;58.30
13521;DHT22;6832;51.186;3.236;2022-09-03T02:21:33;23.80;58.70
13521;DHT22;6832;51.186;3.236;2022-09-03T02:24:03;23.80;58.70
13521;DHT22;6832;51.186;3.236;2022-09-03T02:26:36;23.80;58.70
13521;DHT22;6832;51.186;3.236;2022-09-03T02:29:04;23.70;59.00
13521;DHT22;6832;51.186;3.236;2022-09-03T02:31:45;23.70;58.70
13521;DHT22;6832;51.186;3.236;2022-09-03T02:34:31;23.60;58.60
13521;DHT22;6832;51.186;3.236;2022-09-03T02:37:40;23.60;59.70
13521;DHT22;6832;51.186;3.236;2022-09-03T02:40:12;23.60;59.70
13521;DHT22;6832;51.186;3.236;2022-09-03T02:42:40;23.60;59.10
13521;DHT22;6832;51.186;3.236;2022-09-03T02:45:27;23.50;58.80
13521;DHT22;6832;51.186;3.236;2022-09-03T02:47:58;23.40;59.20
13521;DHT22;6832;51.186;3.236;2022-09-03T02:50:28;23.50;59.10
13521;DHT22;6832;51.186;3.236;2022-09-03T02:53:13;23.40;59.30
13521;DHT22;6832;51.186;3.236;2022-09-03T02:55:46;23.40;59.60
13521;DHT22;6832;51.186;3.236;2022-09-03T02:58:16;23.40;59.10
13521;DHT22;6832;51.186;3.236;2022-09-03T03:00:46;23.40;58.80
13521;DHT22;6832;51.186;3.236;2022-09-03T03:03:20;23.40;58.80
13521;DHT22;6832;51.186;3.236;2022-09-03T03:05:51;23.40;59.10
13521;DHT22;6832;51.186;3.236;2022-09-03T03:08:31;23.40;59.00
13521;DHT22;6832;51.186;3.236;2022-09-03T03:11:07;23.40;59.40
13521;DHT22;6832;51.186;3.236;2022-09-03T03:13:36;23.40;59.30
13521;DHT22;6832;51.186;3.236;2022-09-03T03:16:04;23.40;59.00
13521;DHT22;6832;51.186;3.236;2022-09-03T03:18:35;23.40;59.10
13521;DHT22;6832;51.186;3.236;2022-09-03T03:21:06;23.30;59.20
13521;DHT22;6832;51.186;3.236;2022-09-03T03:23:51;23.30;59.30
13521;DHT22;6832;51.186;3.236;2022-09-03T03:26:21;23.30;59.70
13521;DHT22;6832;51.186;3.236;2022-09-03T03:28:57;23.20;59.30
13521;DHT22;6832;51.186;3.236;2022-09-03T03:31:29;23.20;59.50
13521;DHT22;6832;51.186;3.236;2022-09-03T03:36:59;23.20;60.20
13521;DHT22;6832;51.186;3.236;2022-09-03T03:39:31;23.20;59.50
13521;DHT22;6832;51.186;3.236;2022-09-03T03:42:17;23.20;59.80
13521;DHT22;6832;51.186;3.236;2022-09-03T03:44:59;23.10;59.70
13521;DHT22;6832;51.186;3.236;2022-09-03T03:47:37;23.10;59.60
13521;DHT22;6832;51.186;3.236;2022-09-03T03:50:07;23.10;60.00
13521;DHT22;6832;51.186;3.236;2022-09-03T03:52:34;23.10;59.90
13521;DHT22;6832;51.186;3.236;2022-09-03T03:55:08;23.00;59.90
13521;DHT22;6832;51.186;3.236;2022-09-03T03:57:58;23.00;60.10
13521;DHT22;6832;51.186;3.236;2022-09-03T04:00:28;23.00;60.40
13521;DHT22;6832;51.186;3.236;2022-09-03T04:02:55;23.00;60.30
13521;DHT22;6832;51.186;3.236;2022-09-03T04:05:24;23.00;60.30
13521;DHT22;6832;51.186;3.236;2022-09-03T04:08:05;23.00;60.20
13521;DHT22;6832;51.186;3.236;2022-09-03T04:10:38;23.00;60.10
13521;DHT22;6832;51.186;3.236;2022-09-03T04:13:10;23.10;60.60
13521;DHT22;6832;51.186;3.236;2022-09-03T04:15:40;23.10;60.40
13521;DHT22;6832;51.186;3.236;2022-09-03T04:18:31;23.10;60.40
13521;DHT22;6832;51.186;3.236;2022-09-03T04:21:07;23.10;61.30
13521;DHT22;6832;51.186;3.236;2022-09-03T04:23:40;23.10;61.40
13521;DHT22;6832;51.186;3.236;2022-09-03T04:26:27;23.10;60.80
13521;DHT22;6832;51.186;3.236;2022-09-03T04:29:03;23.10;61.40
13521;DHT22;6832;51.186;3.236;2022-09-03T04:31:44;23.10;61.40
13521;DHT22;6832;51.186;3.236;2022-09-03T04:34:47;23.10;61.60
13521;DHT22;6832;51.186;3.236;2022-09-03T04:37:22;23.10;61.20
13521;DHT22;6832;51.186;3.236;2022-09-03T04:40:00;23.10;61.10
13521;DHT22;6832;51.186;3.236;2022-09-03T04:42:41;23.10;61.40
13521;DHT22;6832;51.186;3.236;2022-09-03T04:45:15;23.10;62.00
13521;DHT22;6832;51.186;3.236;2022-09-03T04:47:55;23.10;61.60
13521;DHT22;6832;51.186;3.236;2022-09-03T04:50:42;23.10;61.90
13521;DHT22;6832;51.186;3.236;2022-09-03T04:53:11;23.10;61.40
13521;DHT22;6832;51.186;3.236;2022-09-03T04:55:39;23.10;61.50
13521;DHT22;6832;51.186;3.236;2022-09-03T04:58:09;23.10;61.20
13521;DHT22;6832;51.186;3.236;2022-09-03T05:00:37;23.10;61.40
13521;DHT22;6832;51.186;3.236;2022-09-03T05:03:04;23.10;61.40
13521;DHT22;6832;51.186;3.236;2022-09-03T05:05:37;23.10;61.40
13521;DHT22;6832;51.186;3.236;2022-09-03T05:08:13;23.10;61.40
13521;DHT22;6832;51.186;3.236;2022-09-03T05:10:40;23.10;61.50
13521;DHT22;6832;51.186;3.236;2022-09-03T05:13:38;23.10;61.20
13521;DHT22;6832;51.186;3.236;2022-09-03T05:16:10;23.10;61.60
13521;DHT22;6832;51.186;3.236;2022-09-03T05:18:38;23.10;61.60
13521;DHT22;6832;51.186;3.236;2022-09-03T05:24:03;23.10;61.90
13521;DHT22;6832;51.186;3.236;2022-09-03T05:26:45;23.10;61.40
13521;DHT22;6832;51.186;3.236;2022-09-03T05:29:15;23.10;61.40
13521;DHT22;6832;51.186;3.236;2022-09-03T05:31:44;23.10;61.40
13521;DHT22;6832;51.186;3.236;2022-09-03T05:34:24;23.10;61.70
13521;DHT22;6832;51.186;3.236;2022-09-03T05:36:51;23.10;61.90
13521;DHT22;6832;51.186;3.236;2022-09-03T05:39:32;23.10;61.90
13521;DHT22;6832;51.186;3.236;2022-09-03T05:42:07;23.10;62.10
13521;DHT22;6832;51.186;3.236;2022-09-03T05:44:41;23.10;62.90
13521;DHT22;6832;51.186;3.236;2022-09-03T05:47:10;23.10;62.90
13521;DHT22;6832;51.186;3.236;2022-09-03T05:49:38;23.00;62.50
13521;DHT22;6832;51.186;3.236;2022-09-03T05:52:05;23.10;62.80
13521;DHT22;6832;51.186;3.236;2022-09-03T05:54:34;23.10;62.90
13521;DHT22;6832;51.186;3.236;2022-09-03T05:57:02;23.10;63.00
13521;DHT22;6832;51.186;3.236;2022-09-03T05:59:32;23.10;63.10
13521;DHT22;6832;51.186;3.236;2022-09-03T06:02:33;23.00;63.20
13521;DHT22;6832;51.186;3.236;2022-09-03T06:05:04;23.10;63.70
13521;DHT22;6832;51.186;3.236;2022-09-03T06:07:40;23.10;63.00
13521;DHT22;6832;51.186;3.236;2022-09-03T06:10:11;23.10;63.20
13521;DHT22;6832;51.186;3.236;2022-09-03T06:12:40;23.10;63.30
13521;DHT22;6832;51.186;3.236;2022-09-03T06:15:14;23.10;63.30
13521;DHT22;6832;51.186;3.236;2022-09-03T06:24:21;23.10;63.80
13521;DHT22;6832;51.186;3.236;2022-09-03T06:26:53;23.20;63.70
13521;DHT22;6832;51.186;3.236;2022-09-03T06:32:20;23.20;64.30
13521;DHT22;6832;51.186;3.236;2022-09-03T06:34:53;23.20;63.50
13521;DHT22;6832;51.186;3.236;2022-09-03T06:37:23;23.30;63.70
13521;DHT22;6832;51.186;3.236;2022-09-03T06:39:53;23.30;63.70
13521;DHT22;6832;51.186;3.236;2022-09-03T06:42:26;23.30;63.60
13521;DHT22;6832;51.186;3.236;2022-09-03T06:47:29;23.40;63.60
13521;DHT22;6832;51.186;3.236;2022-09-03T06:49:57;23.40;63.60
13521;DHT22;6832;51.186;3.236;2022-09-03T06:52:52;23.40;63.60
13521;DHT22;6832;51.186;3.236;2022-09-03T06:55:35;23.40;64.20
13521;DHT22;6832;51.186;3.236;2022-09-03T06:58:10;23.50;64.00
13521;DHT22;6832;51.186;3.236;2022-09-03T07:00:37;23.60;63.70
13521;DHT22;6832;51.186;3.236;2022-09-03T07:03:06;23.60;63.50
13521;DHT22;6832;51.186;3.236;2022-09-03T07:05:33;23.60;63.50
13521;DHT22;6832;51.186;3.236;2022-09-03T07:08:01;23.60;63.30
13521;DHT22;6832;51.186;3.236;2022-09-03T07:13:41;23.70;63.40
13521;DHT22;6832;51.186;3.236;2022-09-03T07:16:14;23.80;63.40
13521;DHT22;6832;51.186;3.236;2022-09-03T07:18:43;23.80;63.30
13521;DHT22;6832;51.186;3.236;2022-09-03T07:21:23;23.80;63.60
13521;DHT22;6832;51.186;3.236;2022-09-03T07:23:56;23.80;63.70
13521;DHT22;6832;51.186;3.236;2022-09-03T07:26:36;23.80;63.90
13521;DHT22;6832;51.186;3.236;2022-09-03T07:29:13;23.90;64.00
13521;DHT22;6832;51.186;3.236;2022-09-03T07:31:41;23.90;63.80
13521;DHT22;6832;51.186;3.236;2022-09-03T07:34:13;24.00;63.90
13521;DHT22;6832;51.186;3.236;2022-09-03T07:36:42;24.10;64.10
13521;DHT22;6832;51.186;3.236;2022-09-03T07:39:12;24.10;64.00
13521;DHT22;6832;51.186;3.236;2022-09-03T07:41:40;24.10;63.90
13521;DHT22;6832;51.186;3.236;2022-09-03T07:44:09;24.20;64.00
13521;DHT22;6832;51.186;3.236;2022-09-03T07:46:40;24.20;64.90
13521;DHT22;6832;51.186;3.236;2022-09-03T07:49:08;24.30;64.00
13521;DHT22;6832;51.186;3.236;2022-09-03T07:51:37;24.30;63.90
13521;DHT22;6832;51.186;3.236;2022-09-03T07:54:21;24.40;64.30
13521;DHT22;6832;51.186;3.236;2022-09-03T07:56:50;24.40;63.60
13521;DHT22;6832;51.186;3.236;2022-09-03T07:59:27;24.50;63.50
13521;DHT22;6832;51.186;3.236;2022-09-03T08:01:55;24.50;63.50
13521;DHT22;6832;51.186;3.236;2022-09-03T08:04:23;24.60;63.20
13521;DHT22;6832;51.186;3.236;2022-09-03T08:09:28;24.60;63.00
13521;DHT22;6832;51.186;3.236;2022-09-03T08:11:57;24.60;62.90
13521;DHT22;6832;51.186;3.236;2022-09-03T08:14:26;24.80;63.10
13521;DHT22;6832;51.186;3.236;2022-09-03T08:17:01;24.80;63.20
13521;DHT22;6832;51.186;3.236;2022-09-03T08:19:30;24.80;63.30
13521;DHT22;6832;51.186;3.236;2022-09-03T08:22:08;24.90;63.50
13521;DHT22;6832;51.186;3.236;2022-09-03T08:24:35;24.90;63.20
13521;DHT22;6832;51.186;3.236;2022-09-03T08:27:03;25.00;63.00
13521;DHT22;6832;51.186;3.236;2022-09-03T08:29:45;25.00;62.60
13521;DHT22;6832;51.186;3.236;2022-09-03T08:32:37;25.10;62.50
13521;DHT22;6832;51.186;3.236;2022-09-03T08:35:15;25.10;62.50
13521;DHT22;6832;51.186;3.236;2022-09-03T08:37:42;25.20;62.50
13521;DHT22;6832;51.186;3.236;2022-09-03T08:40:15;25.30;62.50
13521;DHT22;6832;51.186;3.236;2022-09-03T08:44:15;25.40;62.60
13521;DHT22;6832;51.186;3.236;2022-09-03T08:46:36;25.40;62.10
13521;DHT22;6832;51.186;3.236;2022-09-03T08:49:10;25.50;62.00
13521;DHT22;6832;51.186;3.236;2022-09-03T08:51:41;25.60;62.00
13521;DHT22;6832;51.186;3.236;2022-09-03T08:54:10;25.70;62.00
13521;DHT22;6832;51.186;3.236;2022-09-03T08:59:51;25.80;61.70
13521;DHT22;6832;51.186;3.236;2022-09-03T09:06:02;26.00;61.60
13521;DHT22;6832;51.186;3.236;2022-09-03T09:08:47;26.10;61.80
13521;DHT22;6832;51.186;3.236;2022-09-03T09:14:36;26.40;61.00
13521;DHT22;6832;51.186;3.236;2022-09-03T09:17:24;26.40;60.80
13521;DHT22;6832;51.186;3.236;2022-09-03T09:20:16;26.50;60.80
13521;DHT22;6832;51.186;3.236;2022-09-03T09:23:13;26.60;60.30
13521;DHT22;6832;51.186;3.236;2022-09-03T09:25:46;26.70;60.20
13521;DHT22;6832;51.186;3.236;2022-09-03T09:28:37;26.70;59.70
13521;DHT22;6832;51.186;3.236;2022-09-03T09:47:04;27.00;59.40
13521;DHT22;6832;51.186;3.236;2022-09-03T09:49:35;27.00;58.90
13521;DHT22;6832;51.186;3.236;2022-09-03T09:52:08;27.10;59.30
13521;DHT22;6832;51.186;3.236;2022-09-03T09:54:39;27.10;59.20
13521;DHT22;6832;51.186;3.236;2022-09-03T09:57:14;27.10;59.10
13521;DHT22;6832;51.186;3.236;2022-09-03T09:59:42;27.10;59.00
13521;DHT22;6832;51.186;3.236;2022-09-03T10:02:18;27.20;59.00
13521;DHT22;6832;51.186;3.236;2022-09-03T10:04:46;27.20;58.80
13521;DHT22;6832;51.186;3.236;2022-09-03T10:07:23;27.30;58.90
13521;DHT22;6832;51.186;3.236;2022-09-03T10:10:00;27.30;58.60
13521;DHT22;6832;51.186;3.236;2022-09-03T10:12:31;27.40;58.50
13521;DHT22;6832;51.186;3.236;2022-09-03T10:15:10;27.40;58.80
13521;DHT22;6832;51.186;3.236;2022-09-03T10:17:54;27.50;58.90
13521;DHT22;6832;51.186;3.236;2022-09-03T10:23:49;27.60;58.30
13521;DHT22;6832;51.186;3.236;2022-09-03T10:26:36;27.70;58.40
13521;DHT22;6832;51.186;3.236;2022-09-03T10:29:17;27.80;58.10
13521;DHT22;6832;51.186;3.236;2022-09-03T10:32:19;27.90;58.50
13521;DHT22;6832;51.186;3.236;2022-09-03T10:45:28;28.20;57.90
13521;DHT22;6832;51.186;3.236;2022-09-03T10:48:30;28.30;57.60
13521;DHT22;6832;51.186;3.236;2022-09-03T10:51:35;28.30;57.20
13521;DHT22;6832;51.186;3.236;2022-09-03T10:54:48;28.40;56.80
13521;DHT22;6832;51.186;3.236;2022-09-03T10:58:31;28.40;56.60
13521;DHT22;6832;51.186;3.236;2022-09-03T11:13:11;28.60;56.70
13521;DHT22;6832;51.186;3.236;2022-09-03T11:16:02;28.70;56.60
13521;DHT22;6832;51.186;3.236;2022-09-03T11:18:54;28.70;56.70
13521;DHT22;6832;51.186;3.236;2022-09-03T11:21:29;28.80;56.40
13521;DHT22;6832;51.186;3.236;2022-09-03T11:24:05;28.90;56.60
13521;DHT22;6832;51.186;3.236;2022-09-03T11:26:35;29.00;56.20
13521;DHT22;6832;51.186;3.236;2022-09-03T11:35:42;29.20;55.50
13521;DHT22;6832;51.186;3.236;2022-09-03T11:38:20;29.30;56.20
13521;DHT22;6832;51.186;3.236;2022-09-03T11:41:03;29.40;55.70
13521;DHT22;6832;51.186;3.236;2022-09-03T11:43:38;29.40;55.60
13521;DHT22;6832;51.186;3.236;2022-09-03T11:49:31;29.60;55.90
13521;DHT22;6832;51.186;3.236;2022-09-03T11:52:00;29.80;55.30
13521;DHT22;6832;51.186;3.236;2022-09-03T11:54:31;29.90;55.50
13521;DHT22;6832;51.186;3.236;2022-09-03T11:57:08;30.10;55.40
13521;DHT22;6832;51.186;3.236;2022-09-03T11:59:43;30.20;55.10
13521;DHT22;6832;51.186;3.236;2022-09-03T12:02:21;30.30;54.50
13521;DHT22;6832;51.186;3.236;2022-09-03T12:05:22;30.50;54.10
13521;DHT22;6832;51.186;3.236;2022-09-03T12:14:52;30.90;53.00
13521;DHT22;6832;51.186;3.236;2022-09-03T12:17:33;31.10;53.10
13521;DHT22;6832;51.186;3.236;2022-09-03T12:20:15;31.20;53.20
13521;DHT22;6832;51.186;3.236;2022-09-03T12:22:48;31.30;52.70
13521;DHT22;6832;51.186;3.236;2022-09-03T12:25:15;31.30;52.30
13521;DHT22;6832;51.186;3.236;2022-09-03T12:27:44;31.40;52.20
13521;DHT22;6832;51.186;3.236;2022-09-03T12:30:15;31.30;51.50
13521;DHT22;6832;51.186;3.236;2022-09-03T12:32:44;31.30;51.70
13521;DHT22;6832;51.186;3.236;2022-09-03T12:35:13;31.40;51.70
13521;DHT22;6832;51.186;3.236;2022-09-03T12:37:41;31.30;51.50
13521;DHT22;6832;51.186;3.236;2022-09-03T12:40:18;31.40;51.80
13521;DHT22;6832;51.186;3.236;2022-09-03T12:43:10;31.40;51.30
13521;DHT22;6832;51.186;3.236;2022-09-03T12:45:46;31.40;51.40
13521;DHT22;6832;51.186;3.236;2022-09-03T12:48:17;31.40;51.20
13521;DHT22;6832;51.186;3.236;2022-09-03T12:50:48;31.40;51.30
13521;DHT22;6832;51.186;3.236;2022-09-03T12:53:23;31.40;51.10
13521;DHT22;6832;51.186;3.236;2022-09-03T12:56:10;31.30;50.90
13521;DHT22;6832;51.186;3.236;2022-09-03T12:58:47;31.30;50.80
13521;DHT22;6832;51.186;3.236;2022-09-03T13:01:19;31.20;50.80
13521;DHT22;6832;51.186;3.236;2022-09-03T13:03:50;31.20;50.90
13521;DHT22;6832;51.186;3.236;2022-09-03T13:09:34;31.10;51.10
13521;DHT22;6832;51.186;3.236;2022-09-03T13:12:05;31.00;51.00
13521;DHT22;6832;51.186;3.236;2022-09-03T13:14:42;31.00;51.10
13521;DHT22;6832;51.186;3.236;2022-09-03T13:20:42;30.90;51.20
13521;DHT22;6832;51.186;3.236;2022-09-03T13:23:27;31.00;51.10
13521;DHT22;6832;51.186;3.236;2022-09-03T13:26:24;31.00;51.70
13521;DHT22;6832;51.186;3.236;2022-09-03T13:29:14;31.10;51.40
13521;DHT22;6832;51.186;3.236;2022-09-03T13:31:51;31.10;50.90
13521;DHT22;6832;51.186;3.236;2022-09-03T13:34:23;31.30;51.20
13521;DHT22;6832;51.186;3.236;2022-09-03T13:36:57;31.50;50.90
13521;DHT22;6832;51.186;3.236;2022-09-03T13:39:34;31.60;50.20
13521;DHT22;6832;51.186;3.236;2022-09-03T13:42:08;31.80;50.40
13521;DHT22;6832;51.186;3.236;2022-09-03T13:44:59;31.90;50.40
13521;DHT22;6832;51.186;3.236;2022-09-03T13:47:35;32.00;49.60
13521;DHT22;6832;51.186;3.236;2022-09-03T13:50:28;32.20;49.60
13521;DHT22;6832;51.186;3.236;2022-09-03T13:53:02;32.30;49.50
13521;DHT22;6832;51.186;3.236;2022-09-03T13:55:36;32.30;49.00
13521;DHT22;6832;51.186;3.236;2022-09-03T13:58:20;32.40;49.00
13521;DHT22;6832;51.186;3.236;2022-09-03T14:01:08;32.40;48.70
13521;DHT22;6832;51.186;3.236;2022-09-03T14:03:43;32.50;48.10
13521;DHT22;6832;51.186;3.236;2022-09-03T14:06:19;32.50;48.20
13521;DHT22;6832;51.186;3.236;2022-09-03T14:09:01;32.60;48.00
13521;DHT22;6832;51.186;3.236;2022-09-03T14:11:45;32.60;48.10
13521;DHT22;6832;51.186;3.236;2022-09-03T14:14:39;32.60;47.90
13521;DHT22;6832;51.186;3.236;2022-09-03T14:17:13;32.60;48.10
13521;DHT22;6832;51.186;3.236;2022-09-03T14:19:47;32.60;47.30
13521;DHT22;6832;51.186;3.236;2022-09-03T14:22:44;32.60;47.40
13521;DHT22;6832;51.186;3.236;2022-09-03T14:25:22;32.50;47.20
13521;DHT22;6832;51.186;3.236;2022-09-03T14:28:19;32.40;46.90
13521;DHT22;6832;51.186;3.236;2022-09-03T14:30:59;32.30;47.10
13521;DHT22;6832;51.186;3.236;2022-09-03T14:34:22;32.30;47.00
13521;DHT22;6832;51.186;3.236;2022-09-03T14:36:56;32.10;46.80
13521;DHT22;6832;51.186;3.236;2022-09-03T14:40:09;32.00;47.20
13521;DHT22;6832;51.186;3.236;2022-09-03T14:42:55;31.80;47.20
13521;DHT22;6832;51.186;3.236;2022-09-03T14:45:50;31.70;47.10
13521;DHT22;6832;51.186;3.236;2022-09-03T14:48:36;31.60;47.20
13521;DHT22;6832;51.186;3.236;2022-09-03T14:51:25;31.50;47.40
13521;DHT22;6832;51.186;3.236;2022-09-03T14:54:15;31.30;47.70
13521;DHT22;6832;51.186;3.236;2022-09-03T14:56:52;31.30;47.70
13521;DHT22;6832;51.186;3.236;2022-09-03T14:59:33;31.20;48.20
13521;DHT22;6832;51.186;3.236;2022-09-03T15:05:15;31.10;48.10
13521;DHT22;6832;51.186;3.236;2022-09-03T15:07:50;31.10;48.10
13521;DHT22;6832;51.186;3.236;2022-09-03T15:10:31;31.10;48.30
13521;DHT22;6832;51.186;3.236;2022-09-03T15:13:09;31.00;47.90
13521;DHT22;6832;51.186;3.236;2022-09-03T15:15:53;31.00;48.10
13521;DHT22;6832;51.186;3.236;2022-09-03T15:18:56;30.90;48.00
13521;DHT22;6832;51.186;3.236;2022-09-03T15:21:42;30.80;48.10
13521;DHT22;6832;51.186;3.236;2022-09-03T15:24:19;30.80;48.20
13521;DHT22;6832;51.186;3.236;2022-09-03T15:27:01;30.70;48.30
13521;DHT22;6832;51.186;3.236;2022-09-03T15:29:59;30.60;48.40
13521;DHT22;6832;51.186;3.236;2022-09-03T15:32:48;30.50;48.50
13521;DHT22;6832;51.186;3.236;2022-09-03T15:35:33;30.40;48.60
13521;DHT22;6832;51.186;3.236;2022-09-03T15:38:08;30.40;48.80
13521;DHT22;6832;51.186;3.236;2022-09-03T15:40:41;30.30;48.90
13521;DHT22;6832;51.186;3.236;2022-09-03T15:43:30;30.20;48.80
13521;DHT22;6832;51.186;3.236;2022-09-03T15:46:01;30.20;49.00
13521;DHT22;6832;51.186;3.236;2022-09-03T15:51:16;30.10;49.20
13521;DHT22;6832;51.186;3.236;2022-09-03T15:52:01;30.10;49.30
13521;DHT22;6832;51.186;3.236;2022-09-03T15:54:48;30.10;49.30
13521;DHT22;6832;51.186;3.236;2022-09-03T15:57:29;30.00;49.60
13521;DHT22;6832;51.186;3.236;2022-09-03T16:00:11;30.00;49.60
13521;DHT22;6832;51.186;3.236;2022-09-03T16:02:44;29.90;49.80
13521;DHT22;6832;51.186;3.236;2022-09-03T16:05:35;29.90;49.80
13521;DHT22;6832;51.186;3.236;2022-09-03T16:08:09;29.90;50.00
13521;DHT22;6832;51.186;3.236;2022-09-03T16:10:49;29.90;50.20
13521;DHT22;6832;51.186;3.236;2022-09-03T16:13:31;29.90;50.40
13521;DHT22;6832;51.186;3.236;2022-09-03T16:19:09;29.90;50.20
13521;DHT22;6832;51.186;3.236;2022-09-03T16:21:57;29.90;50.20
13521;DHT22;6832;51.186;3.236;2022-09-03T16:24:40;29.90;50.20
13521;DHT22;6832;51.186;3.236;2022-09-03T16:30:21;29.90;50.30
13521;DHT22;6832;51.186;3.236;2022-09-03T16:33:15;29.90;50.30
13521;DHT22;6832;51.186;3.236;2022-09-03T16:36:05;29.90;50.20
13521;DHT22;6832;51.186;3.236;2022-09-03T16:41:56;29.90;49.70
13521;DHT22;6832;51.186;3.236;2022-09-03T16:44:45;29.90;49.80
13521;DHT22;6832;51.186;3.236;2022-09-03T16:47:45;29.90;50.00
13521;DHT22;6832;51.186;3.236;2022-09-03T16:50:32;29.90;50.20
13521;DHT22;6832;51.186;3.236;2022-09-03T16:53:09;29.90;50.20
13521;DHT22;6832;51.186;3.236;2022-09-03T16:55:55;29.90;50.20
13521;DHT22;6832;51.186;3.236;2022-09-03T16:58:47;29.90;50.30
13521;DHT22;6832;51.186;3.236;2022-09-03T17:01:56;29.90;50.70
13521;DHT22;6832;51.186;3.236;2022-09-03T17:04:59;29.90;50.60
13521;DHT22;6832;51.186;3.236;2022-09-03T17:07:41;29.90;50.50
13521;DHT22;6832;51.186;3.236;2022-09-03T17:10:41;30.00;50.70
13521;DHT22;6832;51.186;3.236;2022-09-03T17:16:45;29.90;50.80
13521;DHT22;6832;51.186;3.236;2022-09-03T17:19:24;29.90;50.70
13521;DHT22;6832;51.186;3.236;2022-09-03T17:22:21;29.90;50.70
13521;DHT22;6832;51.186;3.236;2022-09-03T17:25:18;29.90;51.00
13521;DHT22;6832;51.186;3.236;2022-09-03T17:28:02;29.90;51.10
13521;DHT22;6832;51.186;3.236;2022-09-03T17:30:40;29.90;51.00
13521;DHT22;6832;51.186;3.236;2022-09-03T17:40:11;29.90;51.30
13521;DHT22;6832;51.186;3.236;2022-09-03T17:42:58;29.80;51.10
13521;DHT22;6832;51.186;3.236;2022-09-03T17:45:48;29.80;51.20
13521;DHT22;6832;51.186;3.236;2022-09-03T17:51:44;29.70;51.30
13521;DHT22;6832;51.186;3.236;2022-09-03T17:54:23;29.70;51.40
13521;DHT22;6832;51.186;3.236;2022-09-03T18:00:31;29.60;52.20
13521;DHT22;6832;51.186;3.236;2022-09-03T18:07:10;29.50;53.00
13521;DHT22;6832;51.186;3.236;2022-09-03T18:10:09;29.40;53.40
13521;DHT22;6832;51.186;3.236;2022-09-03T18:16:18;29.20;54.80
13521;DHT22;6832;51.186;3.236;2022-09-03T18:18:59;29.10;55.00
13521;DHT22;6832;51.186;3.236;2022-09-03T18:21:46;29.10;54.80
13521;DHT22;6832;51.186;3.236;2022-09-03T18:24:38;29.00;55.10
13521;DHT22;6832;51.186;3.236;2022-09-03T18:27:31;29.00;55.00
13521;DHT22;6832;51.186;3.236;2022-09-03T18:30:19;28.90;55.00
13521;DHT22;6832;51.186;3.236;2022-09-03T18:33:23;28.80;54.80
13521;DHT22;6832;51.186;3.236;2022-09-03T18:38:38;28.70;55.20
13521;DHT22;6832;51.186;3.236;2022-09-03T18:45:08;28.50;56.30
13521;DHT22;6832;51.186;3.236;2022-09-03T18:48:20;28.50;56.70
13521;DHT22;6832;51.186;3.236;2022-09-03T18:51:23;28.40;56.50
13521;DHT22;6832;51.186;3.236;2022-09-03T18:54:26;28.40;56.80
13521;DHT22;6832;51.186;3.236;2022-09-03T18:57:23;28.30;57.10
13521;DHT22;6832;51.186;3.236;2022-09-03T19:00:48;28.30;56.90
13521;DHT22;6832;51.186;3.236;2022-09-03T19:03:58;28.20;56.80
13521;DHT22;6832;51.186;3.236;2022-09-03T19:27:43;27.80;57.50
13521;DHT22;6832;51.186;3.236;2022-09-03T19:30:56;27.80;57.90
13521;DHT22;6832;51.186;3.236;2022-09-03T19:37:57;27.70;58.60
13521;DHT22;6832;51.186;3.236;2022-09-03T19:47:49;27.60;59.20
13521;DHT22;6832;51.186;3.236;2022-09-03T19:51:16;27.50;59.60
13521;DHT22;6832;51.186;3.236;2022-09-03T19:58:00;27.40;59.90
13521;DHT22;6832;51.186;3.236;2022-09-03T20:35:23;26.90;61.40
13521;DHT22;6832;51.186;3.236;2022-09-03T20:43:16;26.80;61.70
13521;DHT22;6832;51.186;3.236;2022-09-03T20:46:12;26.80;61.20
13521;DHT22;6832;51.186;3.236;2022-09-03T20:49:02;26.80;61.70
13521;DHT22;6832;51.186;3.236;2022-09-03T22:01:09;26.40;62.90
13521;DHT22;6832;51.186;3.236;2022-09-03T22:06:37;26.40;62.40
13521;DHT22;6832;51.186;3.236;2022-09-03T22:15:54;26.40;62.40
13521;DHT22;6832;51.186;3.236;2022-09-03T22:18:39;26.30;62.70